Time;durP1;ratioP1;P1;durP2;ratioP2;P2;SDS_P1;SDS_P2;PMS_P1;PMS_P2;Temp;Humidity;BMP_temperature;BMP_pressure;BME280_temperature;BME280_humidity;BME280_pressure;Samples;Min_cycle;Max_cycle;Signal;HPM_P1;HPM_P2
2021/03/30 00:00:06;;;;;;;4.53;2.42;;;7.20;67.00;;;;;;5095793;28;20377;-67
2021/03/30 00:02:31;;;;;;;5.18;2.65;;;7.20;67.10;;;;;;5091197;28;20492;-66
2021/03/30 00:04:57;;;;;;;5.28;2.20;;;7.10;67.30;;;;;;5091573;28;20036;-66
2021/03/30 00:07:22;;;;;;;4.97;2.70;;;7.10;68.10;;;;;;5092342;28;20031;-68
2021/03/30 00:09:48;;;;;;;5.35;2.78;;;7.00;68.80;;;;;;5091408;28;20032;-68
2021/03/30 00:12:14;;;;;;;5.50;2.80;;;7.00;69.70;;;;;;5092545;28;20031;-65
2021/03/30 00:14:39;;;;;;;4.97;2.70;;;7.00;69.80;;;;;;5092027;28;20028;-68
2021/03/30 00:17:05;;;;;;;6.95;2.55;;;7.00;69.90;;;;;;5091700;28;20032;-68
2021/03/30 00:19:31;;;;;;;6.28;2.83;;;6.90;70.10;;;;;;5092222;28;20028;-68
2021/03/30 00:21:56;;;;;;;9.25;3.22;;;6.90;70.80;;;;;;5090739;28;20078;-66
2021/03/30 00:24:22;;;;;;;9.25;3.10;;;6.90;70.80;;;;;;5073771;28;20036;-65
2021/03/30 00:26:48;;;;;;;6.05;2.67;;;6.80;70.80;;;;;;5091117;28;20085;-65
2021/03/30 00:29:13;;;;;;;5.03;2.92;;;6.90;70.80;;;;;;5091905;28;20407;-66
2021/03/30 00:31:39;;;;;;;7.68;2.38;;;6.80;71.00;;;;;;5091173;28;20469;-68
2021/03/30 00:34:05;;;;;;;5.15;3.20;;;6.70;71.00;;;;;;5091407;28;20032;-67
2021/03/30 00:36:30;;;;;;;6.60;2.75;;;6.70;71.20;;;;;;5091409;28;20397;-65
2021/03/30 00:38:56;;;;;;;6.28;2.83;;;6.70;71.70;;;;;;5090746;28;20031;-66
2021/03/30 00:41:22;;;;;;;5.35;2.53;;;6.60;71.70;;;;;;5091685;28;20024;-65
2021/03/30 00:43:47;;;;;;;7.35;2.58;;;6.60;72.00;;;;;;5090870;28;20594;-64
2021/03/30 00:46:16;;;;;;;7.28;3.00;;;6.60;72.10;;;;;;5091850;28;20343;-65
2021/03/30 00:48:44;;;;;;;4.03;2.47;;;6.50;72.20;;;;;;5091071;28;20038;-67
2021/03/30 00:51:09;;;;;;;8.32;2.95;;;6.40;72.30;;;;;;5091248;28;20430;-67
2021/03/30 00:53:35;;;;;;;6.25;3.00;;;6.40;73.00;;;;;;5091706;28;20034;-66
2021/03/30 00:56:01;;;;;;;5.15;2.60;;;6.50;73.30;;;;;;5090422;28;20034;-68
2021/03/30 00:58:27;;;;;;;3.10;2.22;;;6.40;73.00;;;;;;5091475;28;20043;-62
2021/03/30 01:00:53;;;;;;;6.88;2.95;;;6.40;73.00;;;;;;5103874;28;20059;-65
2021/03/30 01:03:18;;;;;;;6.25;2.83;;;6.30;73.40;;;;;;5097844;28;20302;-66
2021/03/30 01:05:44;;;;;;;4.68;2.72;;;6.30;73.70;;;;;;5090668;28;20099;-67
2021/03/30 01:08:34;;;;;;;5.40;2.33;;;6.20;73.90;;;;;;5091278;28;20056;-65
2021/03/30 01:11:21;;;;;;;5.03;3.03;;;6.20;74.10;;;;;;5090439;28;20028;-65
2021/03/30 01:14:25;;;;;;;5.43;2.45;;;6.10;74.30;;;;;;5090165;28;20024;-68
2021/03/30 01:16:57;;;;;;;5.63;3.25;;;6.10;75.30;;;;;;5090177;28;20039;-65
2021/03/30 01:19:29;;;;;;;5.30;3.00;;;6.10;75.60;;;;;;5091765;28;20029;-65
2021/03/30 01:22:22;;;;;;;5.72;2.72;;;6.00;75.50;;;;;;5090359;28;20129;-67
2021/03/30 01:24:54;;;;;;;5.70;2.80;;;6.00;75.40;;;;;;5089906;28;20059;-66
2021/03/30 01:27:43;;;;;;;6.10;2.88;;;5.90;75.60;;;;;;5091030;28;20040;-66
2021/03/30 01:30:10;;;;;;;5.50;2.60;;;5.90;76.10;;;;;;5090027;28;20032;-65
2021/03/30 01:32:43;;;;;;;4.30;2.80;;;5.80;76.40;;;;;;5073004;28;20331;-67
2021/03/30 01:35:15;;;;;;;4.90;2.70;;;5.70;76.60;;;;;;5090910;28;20512;-63
2021/03/30 01:37:44;;;;;;;7.93;3.45;;;5.70;77.10;;;;;;5090363;28;20498;-68
2021/03/30 01:40:12;;;;;;;4.55;2.70;;;5.60;77.30;;;;;;5091080;28;20036;-67
2021/03/30 01:42:39;;;;;;;5.93;3.03;;;5.50;77.90;;;;;;5090837;28;20020;-62
2021/03/30 01:45:06;;;;;;;6.20;3.40;;;5.50;78.80;;;;;;5089549;28;20020;-65
2021/03/30 01:47:37;;;;;;;6.45;2.95;;;5.50;79.40;;;;;;5090779;28;20039;-64
2021/03/30 01:50:04;;;;;;;8.73;3.72;;;5.60;79.50;;;;;;5093423;28;20028;-64
2021/03/30 01:52:32;;;;;;;7.80;3.50;;;5.60;79.60;;;;;;5094844;28;20384;-65
2021/03/30 01:54:58;;;;;;;6.68;3.22;;;5.60;79.70;;;;;;5094104;28;20031;-63
2021/03/30 01:57:27;;;;;;;12.43;3.72;;;5.60;79.80;;;;;;5094332;28;20105;-66
2021/03/30 01:59:54;;;;;;;6.97;2.92;;;5.60;79.80;;;;;;5093972;28;20330;-63
2021/03/30 02:02:20;;;;;;;5.38;2.95;;;5.50;79.70;;;;;;5094510;28;20028;-67
2021/03/30 02:04:47;;;;;;;6.53;3.20;;;5.50;79.70;;;;;;5103171;28;20131;-64
2021/03/30 02:07:16;;;;;;;4.22;2.92;;;5.40;79.90;;;;;;5095069;28;20108;-62
2021/03/30 02:09:47;;;;;;;5.40;2.97;;;5.40;80.60;;;;;;5093876;28;20114;-67
2021/03/30 02:12:15;;;;;;;9.23;3.42;;;5.30;80.30;;;;;;5094444;28;20488;-64
2021/03/30 02:14:41;;;;;;;12.40;3.38;;;5.30;81.40;;;;;;5093849;28;20027;-66
2021/03/30 02:17:32;;;;;;;6.13;2.50;;;5.30;81.90;;;;;;5075866;28;20024;-63
2021/03/30 02:20:19;;;;;;;7.00;2.78;;;5.30;81.90;;;;;;5090641;28;20047;-64
2021/03/30 02:22:56;;;;;;;4.97;2.90;;;5.30;81.80;;;;;;5085218;28;20546;-67
2021/03/30 02:25:23;;;;;;;8.88;2.92;;;5.20;81.90;;;;;;5091122;28;20036;-62
2021/03/30 02:27:53;;;;;;;7.43;3.17;;;5.20;82.80;;;;;;5093455;28;20063;-64
2021/03/30 02:30:20;;;;;;;5.43;2.83;;;5.20;83.00;;;;;;5094142;28;20032;-64
2021/03/30 02:32:48;;;;;;;6.18;3.38;;;5.20;83.10;;;;;;5084680;28;20036;-67
2021/03/30 02:35:16;;;;;;;8.10;3.58;;;5.20;83.40;;;;;;5076034;28;20073;-62
2021/03/30 02:37:44;;;;;;;8.05;3.10;;;5.10;83.40;;;;;;5093492;28;20035;-67
2021/03/30 02:40:13;;;;;;;5.28;3.15;;;5.10;83.60;;;;;;5092955;28;20469;-64
2021/03/30 02:42:41;;;;;;;7.78;3.58;;;5.10;83.60;;;;;;5093857;28;20492;-64
2021/03/30 02:45:10;;;;;;;8.13;3.08;;;5.10;84.20;;;;;;5093150;28;20080;-67
2021/03/30 02:47:36;;;;;;;5.82;2.83;;;5.20;84.10;;;;;;5094006;28;20084;-64
2021/03/30 02:50:03;;;;;;;7.88;3.33;;;5.10;83.80;;;;;;5092868;28;20028;-64
2021/03/30 02:52:30;;;;;;;5.47;3.33;;;5.10;83.90;;;;;;5093760;28;20154;-63
2021/03/30 02:54:57;;;;;;;5.60;3.13;;;5.10;84.20;;;;;;5092542;28;20047;-65
2021/03/30 02:57:23;;;;;;;12.55;3.63;;;5.10;84.60;;;;;;5093668;28;20032;-66
2021/03/30 02:59:52;;;;;;;7.35;3.72;;;5.00;85.20;;;;;;5091429;28;20040;-64
2021/03/30 03:02:18;;;;;;;11.95;4.13;;;5.00;85.50;;;;;;5093715;28;20354;-65
2021/03/30 03:04:47;;;;;;;7.47;3.60;;;5.00;85.60;;;;;;5092961;28;20052;-67
2021/03/30 03:07:15;;;;;;;6.45;3.85;;;5.00;85.30;;;;;;5074816;28;20119;-63
2021/03/30 03:09:41;;;;;;;7.18;3.50;;;5.00;85.00;;;;;;5093028;28;20032;-61
2021/03/30 03:12:08;;;;;;;7.70;4.25;;;5.00;85.00;;;;;;5092636;28;20822;-64
2021/03/30 03:14:37;;;;;;;7.57;3.70;;;5.00;84.90;;;;;;5093409;28;20059;-63
2021/03/30 03:17:04;;;;;;;12.85;4.07;;;5.00;85.00;;;;;;5092015;28;20030;-65
2021/03/30 03:19:31;;;;;;;8.45;3.95;;;5.00;85.30;;;;;;5093126;28;20073;-64
2021/03/30 03:21:57;;;;;;;10.70;3.83;;;5.00;85.70;;;;;;5092117;28;20032;-67
2021/03/30 03:24:23;;;;;;;10.07;4.35;;;5.00;85.80;;;;;;5093068;28;20103;-64
2021/03/30 03:26:49;;;;;;;6.72;3.83;;;5.00;85.20;;;;;;5091989;28;20115;-65
2021/03/30 03:29:17;;;;;;;10.02;4.00;;;4.90;85.80;;;;;;5091897;28;20032;-64
2021/03/30 03:31:44;;;;;;;7.43;3.72;;;4.90;85.40;;;;;;5093212;28;20039;-67
2021/03/30 03:34:13;;;;;;;7.85;3.95;;;4.90;86.30;;;;;;5092704;28;20035;-65
2021/03/30 03:36:42;;;;;;;7.88;4.05;;;4.90;86.60;;;;;;5092480;28;20389;-61
2021/03/30 03:39:12;;;;;;;9.60;3.70;;;4.90;87.60;;;;;;5091973;28;20046;-65
2021/03/30 03:41:42;;;;;;;10.77;4.25;;;4.80;87.20;;;;;;5093409;28;20040;-66
2021/03/30 03:44:08;;;;;;;8.82;3.63;;;4.80;87.80;;;;;;5092005;28;20053;-66
2021/03/30 03:46:34;;;;;;;6.13;3.30;;;4.90;87.30;;;;;;5092543;28;20048;-67
2021/03/30 03:49:01;;;;;;;7.28;4.03;;;4.80;86.50;;;;;;5092249;28;20032;-61
2021/03/30 03:51:32;;;;;;;5.97;3.70;;;4.80;86.20;;;;;;5092776;28;20042;-65
2021/03/30 03:54:02;;;;;;;6.82;3.47;;;4.80;86.50;;;;;;5092217;28;20020;-67
2021/03/30 03:56:32;;;;;;;10.00;4.82;;;4.70;87.00;;;;;;5092636;28;20032;-67
2021/03/30 03:59:04;;;;;;;11.30;4.32;;;4.60;87.70;;;;;;5091778;28;20066;-66
2021/03/30 04:01:38;;;;;;;9.23;4.22;;;4.60;88.00;;;;;;5092154;28;20174;-62
2021/03/30 04:04:08;;;;;;;6.90;4.00;;;4.60;88.30;;;;;;5072937;28;20044;-66
2021/03/30 04:06:40;;;;;;;7.82;3.47;;;4.60;88.50;;;;;;5092190;28;20028;-66
2021/03/30 04:09:11;;;;;;;10.18;3.75;;;4.50;89.10;;;;;;5101012;28;20031;-66
2021/03/30 04:11:39;;;;;;;10.13;3.50;;;4.60;89.30;;;;;;5094971;28;20491;-64
2021/03/30 04:14:04;;;;;;;11.43;4.50;;;4.50;88.90;;;;;;5090230;28;20119;-70
2021/03/30 04:16:30;;;;;;;6.90;3.70;;;4.50;88.80;;;;;;5090599;28;20111;-65
2021/03/30 04:18:56;;;;;;;6.85;3.45;;;4.50;88.80;;;;;;5090309;28;20056;-67
2021/03/30 04:21:30;;;;;;;5.78;3.70;;;4.40;88.50;;;;;;5091444;28;20032;-63
2021/03/30 04:23:57;;;;;;;6.90;3.65;;;4.40;88.80;;;;;;5088628;28;20028;-65
2021/03/30 04:26:23;;;;;;;8.15;4.03;;;4.30;90.10;;;;;;5090337;28;20032;-62
2021/03/30 04:28:48;;;;;;;11.70;4.80;;;4.30;90.30;;;;;;5080971;28;20542;-68
2021/03/30 04:31:14;;;;;;;7.75;4.28;;;4.30;90.50;;;;;;5082113;28;20465;-67
2021/03/30 04:33:40;;;;;;;6.63;3.85;;;4.20;90.70;;;;;;5090779;28;20043;-68
2021/03/30 04:36:06;;;;;;;10.32;4.05;;;4.20;90.60;;;;;;5090019;28;20062;-66
2021/03/30 04:38:32;;;;;;;10.10;3.83;;;4.20;90.70;;;;;;5090387;28;20024;-66
2021/03/30 04:40:57;;;;;;;7.82;3.85;;;4.20;90.80;;;;;;5090142;28;20461;-63
2021/03/30 04:43:24;;;;;;;10.88;4.03;;;4.20;90.80;;;;;;5090617;28;20028;-63
2021/03/30 04:45:50;;;;;;;9.68;4.80;;;4.20;91.10;;;;;;5089905;28;20037;-67
2021/03/30 04:48:17;;;;;;;10.68;4.30;;;4.20;90.90;;;;;;5090396;28;20115;-66
2021/03/30 04:50:44;;;;;;;11.70;4.90;;;4.30;90.80;;;;;;5078849;28;20043;-67
2021/03/30 04:53:10;;;;;;;6.70;4.35;;;4.30;90.60;;;;;;5089548;28;20032;-65
2021/03/30 04:55:36;;;;;;;9.88;3.90;;;4.30;90.60;;;;;;5090382;28;20538;-66
2021/03/30 04:58:01;;;;;;;11.60;4.78;;;4.40;90.90;;;;;;5089144;28;20031;-65
2021/03/30 05:00:27;;;;;;;9.68;4.07;;;4.40;91.00;;;;;;5088876;28;20450;-61
2021/03/30 05:02:53;;;;;;;9.27;4.38;;;4.40;91.00;;;;;;5089266;28;20476;-62
2021/03/30 05:05:19;;;;;;;9.98;4.72;;;4.40;91.20;;;;;;5090638;28;20131;-67
2021/03/30 05:07:45;;;;;;;12.55;4.30;;;4.40;91.00;;;;;;5090230;28;20057;-67
2021/03/30 05:10:11;;;;;;;9.45;4.68;;;4.40;90.80;;;;;;5090781;28;20409;-67
2021/03/30 05:12:37;;;;;;;7.90;4.28;;;4.40;90.60;;;;;;5100904;28;20066;-65
2021/03/30 05:15:04;;;;;;;10.90;4.60;;;4.40;90.50;;;;;;5097055;28;20058;-66
2021/03/30 05:17:29;;;;;;;6.72;4.40;;;4.40;90.60;;;;;;5091041;28;20028;-65
2021/03/30 05:19:55;;;;;;;8.65;4.60;;;4.50;90.60;;;;;;5072451;28;20036;-67
2021/03/30 05:22:21;;;;;;;7.07;4.25;;;4.50;90.40;;;;;;5091341;28;20054;-67
2021/03/30 05:24:46;;;;;;;8.02;4.20;;;4.40;90.40;;;;;;5090390;28;20450;-68
2021/03/30 05:27:12;;;;;;;13.18;4.70;;;4.50;90.70;;;;;;5090967;28;20481;-66
2021/03/30 05:29:43;;;;;;;8.95;4.50;;;4.40;90.80;;;;;;5091040;28;20025;-66
2021/03/30 05:32:14;;;;;;;10.48;4.53;;;4.40;90.80;;;;;;5089787;28;20032;-65
2021/03/30 05:34:41;;;;;;;11.20;5.03;;;4.40;90.90;;;;;;5086038;28;20028;-66
2021/03/30 05:37:07;;;;;;;9.10;4.93;;;4.40;90.90;;;;;;5058166;28;20024;-66
2021/03/30 05:39:33;;;;;;;8.65;4.20;;;4.40;91.10;;;;;;5091483;28;20111;-65
2021/03/30 05:42:00;;;;;;;7.68;4.38;;;4.40;91.40;;;;;;5087807;28;20036;-67
2021/03/30 05:44:28;;;;;;;13.38;6.10;;;4.40;91.30;;;;;;5090654;28;20044;-66
2021/03/30 05:49:31;;;;;;;10.07;4.97;;;4.50;91.30;;;;;;5091064;28;20109;-70
2021/03/30 05:51:59;;;;;;;10.73;5.15;;;4.50;91.40;;;;;;5089756;28;20452;-69
2021/03/30 05:54:26;;;;;;;8.43;4.75;;;4.60;91.20;;;;;;5090511;28;20028;-66
2021/03/30 05:56:53;;;;;;;12.27;4.82;;;4.70;91.30;;;;;;5089968;28;20032;-67
2021/03/30 05:59:21;;;;;;;9.43;4.43;;;4.90;90.70;;;;;;5090641;28;20032;-67
2021/03/30 06:01:50;;;;;;;11.38;4.15;;;5.00;90.00;;;;;;5090701;28;20050;-69
2021/03/30 06:04:17;;;;;;;9.10;4.35;;;5.10;87.90;;;;;;5090266;28;20105;-69
2021/03/30 06:06:43;;;;;;;8.82;4.60;;;5.30;86.80;;;;;;5090498;28;20024;-67
2021/03/30 06:09:09;;;;;;;9.60;4.93;;;5.30;86.10;;;;;;5089407;28;20063;-66
2021/03/30 06:11:35;;;;;;;9.50;5.05;;;5.40;85.60;;;;;;5090668;28;20024;-66
2021/03/30 06:14:01;;;;;;;9.52;5.22;;;5.50;84.80;;;;;;5089975;28;20028;-65
2021/03/30 06:16:37;;;;;;;10.07;5.03;;;5.60;84.50;;;;;;5100690;28;20072;-66
2021/03/30 06:19:08;;;;;;;11.57;5.18;;;5.70;84.30;;;;;;5071604;28;20550;-66
2021/03/30 06:21:43;;;;;;;9.98;5.05;;;5.80;84.00;;;;;;5090782;28;20086;-66
2021/03/30 06:24:21;;;;;;;11.73;5.38;;;5.80;83.80;;;;;;5089005;28;20103;-64
2021/03/30 06:26:48;;;;;;;9.60;5.43;;;5.90;83.50;;;;;;5089651;28;20465;-68
2021/03/30 06:29:48;;;;;;;9.73;5.38;;;6.00;83.10;;;;;;5072585;28;20035;-65
2021/03/30 06:32:16;;;;;;;8.65;5.90;;;6.10;82.70;;;;;;5035577;28;20028;-66
2021/03/30 06:34:44;;;;;;;8.32;4.95;;;6.10;82.10;;;;;;5072142;28;20028;-65
2021/03/30 06:37:28;;;;;;;9.88;4.70;;;6.20;81.60;;;;;;5092043;28;20030;-65
2021/03/30 06:40:20;;;;;;;9.30;4.70;;;6.30;81.00;;;;;;5093502;28;20153;-65
2021/03/30 06:42:57;;;;;;;9.45;4.40;;;6.40;80.60;;;;;;5093176;28;20503;-65
2021/03/30 06:45:30;;;;;;;12.68;5.20;;;6.50;79.60;;;;;;5077547;28;20480;-64
2021/03/30 06:47:59;;;;;;;7.82;4.60;;;6.60;78.90;;;;;;5091644;28;20039;-65
2021/03/30 06:50:27;;;;;;;8.70;4.97;;;6.70;78.30;;;;;;5091888;28;20028;-66
2021/03/30 06:52:54;;;;;;;14.63;5.60;;;6.80;77.70;;;;;;5093007;28;20051;-66
2021/03/30 06:55:28;;;;;;;18.58;5.45;;;6.90;77.40;;;;;;5093334;28;20028;-65
2021/03/30 06:58:02;;;;;;;29.27;5.80;;;7.00;77.20;;;;;;5092695;28;20043;-64
2021/03/30 07:00:33;;;;;;;15.85;6.05;;;7.10;77.10;;;;;;5093447;28;20495;-65
2021/03/30 07:03:00;;;;;;;10.63;5.53;;;7.20;76.70;;;;;;5092422;28;20076;-65
2021/03/30 07:05:55;;;;;;;15.02;6.10;;;7.30;75.60;;;;;;5071809;28;20056;-64
2021/03/30 07:08:22;;;;;;;16.83;6.35;;;7.50;74.70;;;;;;5067987;28;20051;-64
2021/03/30 07:10:51;;;;;;;8.38;5.60;;;7.70;73.60;;;;;;5072675;28;20084;-65
2021/03/30 07:13:20;;;;;;;13.70;5.85;;;7.80;73.20;;;;;;5071052;28;20111;-64
2021/03/30 07:15:46;;;;;;;13.10;5.60;;;8.00;72.50;;;;;;5073115;28;20043;-65
2021/03/30 07:18:35;;;;;;;7.32;4.68;;;8.10;72.30;;;;;;5072363;28;20028;-65
2021/03/30 07:21:12;;;;;;;15.57;6.30;;;8.20;72.00;;;;;;5082522;28;20025;-65
2021/03/30 07:23:41;;;;;;;12.35;6.35;;;8.40;70.90;;;;;;5071109;28;20035;-64
2021/03/30 07:26:39;;;;;;;11.35;5.40;;;8.60;70.30;;;;;;5072243;28;20025;-66
2021/03/30 07:29:10;;;;;;;12.18;6.15;;;8.70;70.10;;;;;;5055381;28;21767;-65
2021/03/30 07:32:08;;;;;;;12.98;5.55;;;8.80;69.60;;;;;;5071547;28;20186;-65
2021/03/30 07:34:42;;;;;;;14.43;5.97;;;9.00;69.50;;;;;;5071675;28;20039;-62
2021/03/30 07:37:17;;;;;;;11.85;5.65;;;9.20;68.90;;;;;;5071595;28;20035;-66
2021/03/30 07:39:49;;;;;;;11.30;5.97;;;9.40;68.50;;;;;;5068532;28;20067;-64
2021/03/30 07:42:15;;;;;;;13.25;6.22;;;9.50;68.30;;;;;;5071748;28;20124;-66
2021/03/30 07:44:45;;;;;;;14.93;6.53;;;9.70;68.10;;;;;;5072499;28;20032;-64
2021/03/30 07:47:11;;;;;;;13.00;6.30;;;9.80;67.40;;;;;;5069856;28;20205;-66
2021/03/30 07:49:43;;;;;;;15.38;6.18;;;10.00;66.70;;;;;;5062941;28;20048;-66
2021/03/30 07:52:28;;;;;;;12.05;5.93;;;10.10;66.40;;;;;;5070500;28;20048;-66
2021/03/30 07:55:14;;;;;;;12.02;5.82;;;10.20;66.30;;;;;;5071750;28;20021;-67
2021/03/30 07:57:57;;;;;;;13.35;5.90;;;10.30;66.00;;;;;;5071531;28;20036;-65
2021/03/30 08:00:32;;;;;;;16.83;6.05;;;10.50;66.10;;;;;;5072262;28;20037;-64
2021/03/30 08:03:10;;;;;;;11.55;5.57;;;10.60;65.70;;;;;;5070714;28;20035;-66
2021/03/30 08:05:37;;;;;;;15.70;6.85;;;10.70;65.60;;;;;;5088000;28;20036;-64
2021/03/30 08:08:23;;;;;;;12.82;6.68;;;10.90;65.20;;;;;;5091080;28;20454;-65
2021/03/30 08:10:51;;;;;;;8.90;5.95;;;10.90;65.10;;;;;;5092563;28;20481;-66
2021/03/30 08:13:25;;;;;;;14.45;6.80;;;11.10;64.90;;;;;;5091345;28;20089;-66
2021/03/30 08:16:01;;;;;;;14.02;6.03;;;11.10;64.70;;;;;;5087371;28;20468;-66
2021/03/30 08:18:32;;;;;;;15.00;6.65;;;11.20;64.70;;;;;;5091307;28;20028;-66
2021/03/30 08:21:01;;;;;;;16.70;6.40;;;11.40;63.90;;;;;;5091284;28;20723;-66
2021/03/30 08:23:28;;;;;;;16.95;7.22;;;11.60;63.40;;;;;;5104984;28;20023;-66
2021/03/30 08:26:18;;;;;;;9.20;5.93;;;11.70;63.10;;;;;;5096740;28;20023;-67
2021/03/30 08:28:59;;;;;;;15.82;6.43;;;11.90;63.60;;;;;;5091809;28;20381;-66
2021/03/30 08:31:46;;;;;;;20.90;7.07;;;12.10;62.30;;;;;;5073653;28;20032;-66
2021/03/30 08:34:26;;;;;;;17.52;6.00;;;12.20;62.30;;;;;;5089561;28;20100;-66
2021/03/30 08:36:58;;;;;;;11.52;5.55;;;12.40;61.30;;;;;;5092027;28;20378;-64
2021/03/30 08:39:24;;;;;;;13.25;7.00;;;12.60;61.20;;;;;;5091335;28;20028;-63
2021/03/30 08:41:52;;;;;;;14.05;5.72;;;12.80;60.50;;;;;;5086460;28;20043;-67
2021/03/30 08:44:28;;;;;;;15.38;6.03;;;12.90;60.10;;;;;;5090870;28;20059;-66
2021/03/30 08:46:56;;;;;;;13.73;6.05;;;13.10;60.30;;;;;;5090686;28;20024;-67
2021/03/30 08:49:43;;;;;;;20.25;6.13;;;13.20;60.10;;;;;;5091213;28;20117;-66
2021/03/30 08:52:14;;;;;;;13.00;5.10;;;13.50;59.50;;;;;;5082402;28;20028;-64
2021/03/30 08:54:56;;;;;;;16.15;5.68;;;13.70;59.00;;;;;;5091335;28;20381;-66
2021/03/30 08:57:31;;;;;;;8.73;4.45;;;13.80;58.00;;;;;;5091485;28;20028;-64
2021/03/30 08:59:59;;;;;;;10.55;5.05;;;14.00;58.30;;;;;;5089753;28;20024;-67
2021/03/30 09:02:26;;;;;;;11.27;6.22;;;14.20;57.00;;;;;;5091033;28;20103;-65
2021/03/30 09:04:53;;;;;;;11.25;5.38;;;14.30;56.50;;;;;;5090326;28;20044;-65
2021/03/30 09:07:19;;;;;;;11.82;4.78;;;14.50;56.40;;;;;;5090872;28;20020;-65
2021/03/30 09:09:46;;;;;;;14.10;6.57;;;14.60;55.30;;;;;;5073254;28;20362;-65
2021/03/30 09:12:20;;;;;;;12.77;6.22;;;14.70;55.40;;;;;;5090029;28;20032;-67
2021/03/30 09:14:57;;;;;;;17.80;5.32;;;14.90;54.50;;;;;;5090958;28;20526;-66
2021/03/30 09:17:23;;;;;;;9.43;5.47;;;15.00;54.50;;;;;;5091418;28;20028;-66
2021/03/30 09:19:50;;;;;;;16.50;6.95;;;15.20;53.70;;;;;;5090724;28;20066;-66
2021/03/30 09:22:26;;;;;;;11.70;5.53;;;15.30;53.70;;;;;;5090025;28;20120;-66
2021/03/30 09:25:08;;;;;;;17.70;5.45;;;15.50;52.90;;;;;;5091032;28;20024;-66
2021/03/30 09:27:39;;;;;;;9.43;5.10;;;15.60;53.10;;;;;;5106805;28;20040;-67
2021/03/30 09:30:17;;;;;;;14.20;5.18;;;15.80;51.80;;;;;;5091350;28;20111;-64
2021/03/30 09:32:44;;;;;;;17.88;5.25;;;15.90;51.40;;;;;;5090872;28;20067;-65
2021/03/30 09:35:14;;;;;;;16.48;5.55;;;16.00;51.60;;;;;;5089918;28;20427;-61
2021/03/30 09:37:43;;;;;;;11.10;5.15;;;16.20;50.90;;;;;;5090517;28;20511;-65
2021/03/30 09:40:14;;;;;;;10.60;5.63;;;16.30;51.70;;;;;;5089702;28;20193;-66
2021/03/30 09:42:41;;;;;;;16.75;6.00;;;16.40;50.90;;;;;;5067678;28;20024;-65
2021/03/30 09:45:09;;;;;;;15.32;6.45;;;16.60;49.20;;;;;;5090223;28;20028;-66
2021/03/30 09:47:35;;;;;;;13.07;6.18;;;16.80;49.00;;;;;;5090911;28;20151;-65
2021/03/30 09:50:01;;;;;;;17.77;6.22;;;16.90;50.50;;;;;;5089173;28;20115;-67
2021/03/30 09:52:31;;;;;;;17.90;6.70;;;17.00;49.80;;;;;;5072033;28;20036;-66
2021/03/30 09:54:57;;;;;;;13.98;5.93;;;17.30;48.90;;;;;;5090486;28;20036;-67
2021/03/30 09:57:29;;;;;;;11.43;6.15;;;17.40;48.60;;;;;;5091149;28;20086;-66
2021/03/30 09:59:56;;;;;;;21.55;6.22;;;17.70;46.90;;;;;;5090568;28;20384;-67
2021/03/30 10:02:24;;;;;;;15.00;6.68;;;17.90;46.20;;;;;;5090084;28;20526;-65
2021/03/30 10:04:58;;;;;;;20.70;6.15;;;18.00;45.80;;;;;;5090423;28;20039;-67
2021/03/30 10:07:31;;;;;;;16.50;7.00;;;18.20;46.40;;;;;;5090507;28;20436;-66
2021/03/30 10:10:05;;;;;;;13.43;6.50;;;18.30;44.80;;;;;;5091824;28;20020;-68
2021/03/30 10:12:36;;;;;;;16.30;6.10;;;18.40;44.60;;;;;;5094263;28;20039;-67
2021/03/30 10:15:05;;;;;;;20.23;6.20;;;18.50;43.80;;;;;;5093359;28;20028;-67
2021/03/30 10:17:31;;;;;;;12.65;5.95;;;18.60;44.30;;;;;;5092605;28;20427;-66
2021/03/30 10:19:58;;;;;;;10.80;5.70;;;18.80;42.90;;;;;;5093997;28;20076;-68
2021/03/30 10:22:33;;;;;;;16.75;5.90;;;18.90;43.70;;;;;;5093916;28;20024;-67
2021/03/30 10:25:29;;;;;;;12.82;6.18;;;18.90;42.80;;;;;;5093258;28;20111;-67
2021/03/30 10:27:58;;;;;;;10.63;5.80;;;19.00;42.30;;;;;;5094301;28;20043;-67
2021/03/30 10:30:47;;;;;;;15.48;5.78;;;19.20;42.50;;;;;;5104451;28;20031;-66
2021/03/30 10:33:31;;;;;;;15.43;5.88;;;19.40;40.80;;;;;;5088137;28;20030;-65
2021/03/30 10:35:56;;;;;;;9.93;5.50;;;19.60;41.10;;;;;;5094469;28;20058;-67
2021/03/30 10:38:22;;;;;;;14.13;5.43;;;19.70;41.30;;;;;;5092316;28;20024;-64
2021/03/30 10:40:47;;;;;;;11.77;6.20;;;19.80;39.90;;;;;;5093823;28;20462;-67
2021/03/30 10:43:39;;;;;;;9.40;5.43;;;19.90;39.90;;;;;;5093061;28;20081;-62
2021/03/30 10:46:19;;;;;;;7.57;5.28;;;20.10;39.60;;;;;;5083272;28;20069;-66
2021/03/30 10:49:01;;;;;;;7.75;4.90;;;20.20;38.30;;;;;;5084897;28;20059;-66
2021/03/30 10:51:30;;;;;;;9.05;4.95;;;20.30;38.30;;;;;;5093594;28;20032;-67
2021/03/30 10:54:01;;;;;;;10.95;4.70;;;20.40;37.30;;;;;;5085846;28;20030;-66
2021/03/30 10:56:31;;;;;;;5.97;4.20;;;20.60;36.10;;;;;;5075269;28;20122;-66
2021/03/30 10:58:57;;;;;;;7.07;4.13;;;20.70;36.90;;;;;;5074810;28;20024;-67
2021/03/30 11:01:24;;;;;;;10.50;4.97;;;20.80;35.80;;;;;;5092912;28;20044;-67
2021/03/30 11:03:50;;;;;;;13.43;4.28;;;21.00;35.90;;;;;;5092253;28;20481;-66
2021/03/30 11:06:15;;;;;;;7.38;3.75;;;21.10;33.10;;;;;;5092114;28;20039;-67
2021/03/30 11:08:41;;;;;;;12.45;4.30;;;21.30;33.70;;;;;;5093143;28;20111;-65
2021/03/30 11:11:07;;;;;;;9.02;4.07;;;21.40;33.90;;;;;;5092577;28;20107;-67
2021/03/30 11:13:33;;;;;;;7.75;4.05;;;21.60;31.80;;;;;;5092894;28;20028;-67
2021/03/30 11:15:59;;;;;;;19.63;4.68;;;21.90;32.50;;;;;;5093008;28;20036;-68
2021/03/30 11:18:24;;;;;;;5.70;3.28;;;22.00;32.20;;;;;;5092268;28;20532;-67
2021/03/30 11:20:50;;;;;;;7.60;3.80;;;22.20;31.20;;;;;;5092026;28;20419;-65
2021/03/30 11:23:17;;;;;;;7.60;4.00;;;22.30;30.10;;;;;;5073291;28;20024;-67
2021/03/30 11:25:42;;;;;;;8.63;3.35;;;22.50;31.90;;;;;;5091581;28;20103;-67
2021/03/30 11:28:11;;;;;;;7.15;3.42;;;22.70;30.90;;;;;;5091547;28;20896;-67
2021/03/30 11:35:55;;;;;;;5.05;3.35;;;23.50;29.50;;;;;;5090645;28;20031;-66
2021/03/30 11:38:21;;;;;;;7.20;3.22;;;23.70;29.10;;;;;;5084644;28;20021;-67
2021/03/30 11:40:47;;;;;;;5.40;3.30;;;23.80;29.10;;;;;;5087376;28;20036;-65
2021/03/30 11:43:13;;;;;;;45.03;5.38;;;24.10;29.00;;;;;;5089941;28;20499;-67
2021/03/30 11:45:39;;;;;;;5.25;3.58;;;24.30;29.10;;;;;;5073412;28;20107;-67
2021/03/30 11:48:06;;;;;;;6.68;3.58;;;24.50;28.80;;;;;;5090403;28;20709;-67
2021/03/30 11:50:32;;;;;;;7.82;4.40;;;24.90;28.90;;;;;;5091530;28;20040;-66
2021/03/30 11:52:58;;;;;;;8.68;4.38;;;25.20;28.70;;;;;;5091451;28;20028;-65
2021/03/30 11:55:24;;;;;;;8.13;4.18;;;25.10;28.20;;;;;;5088690;28;20031;-68
2021/03/30 11:57:50;;;;;;;8.15;3.60;;;25.20;28.00;;;;;;5092048;28;20107;-65
2021/03/30 12:00:19;;;;;;;6.70;4.20;;;25.30;27.40;;;;;;5089822;28;20109;-67
2021/03/30 12:02:45;;;;;;;9.77;4.10;;;25.60;27.00;;;;;;5071817;28;20055;-66
2021/03/30 12:05:10;;;;;;;8.55;4.50;;;25.80;27.10;;;;;;5088013;28;20048;-67
2021/03/30 12:07:36;;;;;;;6.53;3.80;;;25.80;27.10;;;;;;5089697;28;20030;-65
2021/03/30 12:10:04;;;;;;;7.15;3.75;;;25.90;26.50;;;;;;5089555;28;20020;-67
2021/03/30 12:12:30;;;;;;;6.95;3.75;;;25.90;27.10;;;;;;5089889;28;20023;-65
2021/03/30 12:14:56;;;;;;;7.95;3.63;;;26.00;26.30;;;;;;5090212;28;20020;-63
2021/03/30 12:17:22;;;;;;;5.93;3.53;;;26.10;26.20;;;;;;5089509;28;20028;-65
2021/03/30 12:19:47;;;;;;;7.28;3.58;;;26.40;25.80;;;;;;5090603;28;20024;-67
2021/03/30 12:22:13;;;;;;;4.43;3.22;;;26.60;26.00;;;;;;5089472;28;20421;-67
2021/03/30 12:24:39;;;;;;;4.65;3.05;;;26.50;25.20;;;;;;5090638;28;20043;-67
2021/03/30 12:27:11;;;;;;;5.88;3.25;;;26.60;25.40;;;;;;5089686;28;20078;-68
2021/03/30 12:29:38;;;;;;;6.25;3.22;;;26.70;24.50;;;;;;5087905;28;20084;-65
2021/03/30 12:32:04;;;;;;;12.23;4.30;;;26.80;24.60;;;;;;5090576;28;20032;-66
2021/03/30 12:34:30;;;;;;;9.80;4.05;;;27.00;25.70;;;;;;5090909;28;20112;-65
2021/03/30 12:36:56;;;;;;;10.35;4.40;;;27.20;26.20;;;;;;5102475;28;20485;-67
2021/03/30 12:39:21;;;;;;;10.60;3.58;;;27.30;25.30;;;;;;5090550;28;20024;-67
2021/03/30 12:41:47;;;;;;;8.35;3.75;;;27.40;26.20;;;;;;5090882;28;20354;-67
2021/03/30 12:44:13;;;;;;;4.45;4.05;;;27.60;25.80;;;;;;5090377;28;20465;-65
2021/03/30 12:46:38;;;;;;;8.75;4.78;;;27.70;25.90;;;;;;5091397;28;20446;-66
2021/03/30 12:49:04;;;;;;;6.63;4.47;;;27.90;26.30;;;;;;5090303;28;20024;-67
2021/03/30 12:51:30;;;;;;;12.77;4.30;;;27.70;26.00;;;;;;5091015;28;20038;-67
2021/03/30 12:53:57;;;;;;;6.55;4.43;;;27.40;26.10;;;;;;5073456;28;20024;-64
2021/03/30 12:56:23;;;;;;;13.82;4.32;;;27.20;26.10;;;;;;5090238;28;20665;-65
2021/03/30 12:58:49;;;;;;;8.18;4.03;;;27.10;26.30;;;;;;5091339;28;20031;-66
2021/03/30 13:01:14;;;;;;;8.55;4.25;;;27.00;26.10;;;;;;5090285;28;20028;-67
2021/03/30 13:03:40;;;;;;;6.10;3.70;;;26.90;25.10;;;;;;5090392;28;20066;-68
2021/03/30 13:06:06;;;;;;;8.85;4.30;;;26.80;25.50;;;;;;5090304;28;20035;-67
2021/03/30 13:08:31;;;;;;;9.35;4.45;;;26.90;25.70;;;;;;5091340;28;20086;-65